Cincinnati, Ohio
Traffic Map
Current Weather Conditions
Cincinnati, Ohio
Overcast
Overcast
74°
Feels Like: 74°
Wind Chill: 74° Ceiling: 3400
Heat Index: 74° Visibility: 10mi
Dew Point: 73° Wind: 7mph
Humidity: 97% Direction: 210° (SSW)
Pressure: 29.81in Gusts: 0mph
Raw Report DataKLUK 211204Z 21006KT 10SM FEW006 OVC034 23/23 A2981 RMK AO2 T02330228
Traffic Incident Summary
Active as of:
Severity:
Category:
InformationThere was an issue retrieving the traffic information for this location. Please try a different location or try again shortly.
Advertisements